createdAt,value
2018-11-12T00:01:04.039Z,41.81
2018-11-12T00:03:32.451Z,41.69
2018-11-12T00:06:00.836Z,41.66
2018-11-12T00:08:29.244Z,41.71
2018-11-12T00:10:57.662Z,41.72
2018-11-12T00:13:26.165Z,41.44
2018-11-12T00:15:54.658Z,41.80
2018-11-12T00:18:23.059Z,42.18
2018-11-12T00:20:51.460Z,42.00
2018-11-12T00:23:19.951Z,41.83
2018-11-12T00:25:48.480Z,41.76
2018-11-12T00:28:16.871Z,41.50
2018-11-12T00:30:45.303Z,41.19
2018-11-12T00:33:13.710Z,41.65
2018-11-12T00:35:42.108Z,41.41
2018-11-12T00:38:10.895Z,41.35
2018-11-12T00:40:39.334Z,41.78
2018-11-12T00:43:07.806Z,41.62
2018-11-12T00:45:36.211Z,41.88
2018-11-12T00:48:04.594Z,41.45
2018-11-12T00:50:33.303Z,41.37
2018-11-12T00:53:01.713Z,41.66
2018-11-12T00:55:30.119Z,41.42
2018-11-12T00:57:58.527Z,41.65
2018-11-12T01:00:26.964Z,41.41
2018-11-12T01:02:55.563Z,41.67
2018-11-12T01:05:24.118Z,41.77
2018-11-12T01:07:52.520Z,41.81
2018-11-12T01:10:20.929Z,41.86
2018-11-12T01:12:49.310Z,42.10
2018-11-12T01:15:19.342Z,41.64
2018-11-12T01:17:47.720Z,41.96
2018-11-12T01:20:17.010Z,41.75
2018-11-12T01:22:45.482Z,42.05
2018-11-12T01:25:14.420Z,41.55
2018-11-12T01:27:43.579Z,41.42
2018-11-12T01:30:16.555Z,41.83
2018-11-12T01:32:45.175Z,41.42
2018-11-12T01:35:14.575Z,41.09
2018-11-12T01:37:43.228Z,42.01
2018-11-12T01:40:12.606Z,41.98
2018-11-12T01:42:41.267Z,41.55
2018-11-12T01:45:13.186Z,41.64
2018-11-12T01:47:42.015Z,41.86
2018-11-12T01:50:11.770Z,41.40
2018-11-12T01:52:40.369Z,41.36
2018-11-12T01:55:09.854Z,41.87
2018-11-12T01:57:38.230Z,41.86
2018-11-12T02:00:09.544Z,41.38
2018-11-12T02:02:38.189Z,42.12
2018-11-12T02:05:07.463Z,41.93
2018-11-12T02:07:36.050Z,41.45
2018-11-12T02:10:04.456Z,41.46
2018-11-12T02:12:32.855Z,41.63
2018-11-12T02:15:01.312Z,41.90
2018-11-12T02:17:29.753Z,41.89
2018-11-12T02:19:58.174Z,41.80
2018-11-12T02:22:26.722Z,41.82
2018-11-12T02:24:55.097Z,41.83
2018-11-12T02:27:23.742Z,41.48
2018-11-12T02:29:52.241Z,42.30
2018-11-12T02:32:20.643Z,41.41
2018-11-12T02:34:49.108Z,41.48
2018-11-12T02:37:17.523Z,41.30
2018-11-12T02:39:45.963Z,41.66
2018-11-12T02:42:14.423Z,42.19
2018-11-12T02:44:43.512Z,41.39
2018-11-12T02:47:12.101Z,41.81
2018-11-12T02:49:40.560Z,41.78
2018-11-12T02:52:09.077Z,41.43
2018-11-12T02:54:37.553Z,41.41
2018-11-12T02:57:06.217Z,41.24
2018-11-12T02:59:34.634Z,41.80
2018-11-12T03:02:03.057Z,41.30
2018-11-12T03:04:31.481Z,41.71
2018-11-12T03:07:00.053Z,41.70
2018-11-12T03:09:28.441Z,41.27
2018-11-12T03:11:56.824Z,41.82
2018-11-12T03:14:25.454Z,41.90
2018-11-12T03:16:54.011Z,41.54
2018-11-12T03:19:22.457Z,41.49
2018-11-12T03:21:50.870Z,41.72
2018-11-12T03:24:19.291Z,41.33
2018-11-12T03:26:47.691Z,41.53
2018-11-12T03:29:16.151Z,41.21
2018-11-12T03:31:44.606Z,41.34
2018-11-12T03:34:13.027Z,41.59
2018-11-12T03:36:41.594Z,41.28
2018-11-12T03:39:10.737Z,41.19
2018-11-12T03:41:39.513Z,41.40
2018-11-12T03:44:08.805Z,41.84
2018-11-12T03:46:37.209Z,41.41
2018-11-12T03:49:05.927Z,41.87
2018-11-12T03:51:34.364Z,41.34
2018-11-12T03:54:02.849Z,41.46
2018-11-12T03:56:31.295Z,41.54
2018-11-12T03:59:00.030Z,41.78
2018-11-12T04:01:32.558Z,41.40
2018-11-12T04:04:00.973Z,41.38
2018-11-12T04:06:29.616Z,41.77
2018-11-12T04:08:58.095Z,41.38
2018-11-12T04:11:26.491Z,41.29
2018-11-12T04:13:55.771Z,41.73
2018-11-12T04:16:24.148Z,41.50
2018-11-12T04:18:52.857Z,41.38
2018-11-12T04:21:21.285Z,41.59
2018-11-12T04:23:49.668Z,41.87
2018-11-12T04:26:18.112Z,41.19
2018-11-12T04:28:46.495Z,41.29
2018-11-12T04:31:14.969Z,41.49
2018-11-12T04:33:43.408Z,42.03
2018-11-12T04:36:11.800Z,41.49
2018-11-12T04:38:40.223Z,42.05
2018-11-12T04:41:08.671Z,41.76
2018-11-12T04:43:38.089Z,41.29
2018-11-12T04:46:06.863Z,41.40
2018-11-12T04:48:35.267Z,41.39
2018-11-12T04:51:03.651Z,41.30
2018-11-12T04:53:32.100Z,41.27
2018-11-12T04:56:00.627Z,41.87
2018-11-12T04:58:29.065Z,41.36
2018-11-12T05:00:57.462Z,41.47
2018-11-12T05:03:26.015Z,41.95
2018-11-12T05:05:54.560Z,42.23
2018-11-12T05:08:23.031Z,41.73
2018-11-12T05:10:51.904Z,41.54
2018-11-12T05:13:20.400Z,41.51
2018-11-12T05:15:48.855Z,41.62
2018-11-12T05:18:17.312Z,42.20
2018-11-12T05:20:45.768Z,41.27
2018-11-12T05:23:14.188Z,41.44
2018-11-12T05:25:42.845Z,41.87
2018-11-12T05:28:11.249Z,41.87
2018-11-12T05:30:39.665Z,41.37
2018-11-12T05:33:08.159Z,41.44
2018-11-12T05:35:36.618Z,41.24
2018-11-12T05:38:05.693Z,41.28
2018-11-12T05:40:34.100Z,41.85
2018-11-12T05:43:02.518Z,41.37
2018-11-12T05:45:31.125Z,41.17
2018-11-12T05:47:59.606Z,41.30
2018-11-12T05:50:29.398Z,41.92
2018-11-12T05:53:00.917Z,41.42
2018-11-12T05:55:30.295Z,41.47
2018-11-12T05:57:59.121Z,41.24
2018-11-12T06:00:29.348Z,41.70
2018-11-12T06:02:57.778Z,41.33
2018-11-12T06:05:26.269Z,41.23
2018-11-12T06:07:54.731Z,41.45
2018-11-12T06:10:25.483Z,41.77
2018-11-12T06:12:54.111Z,41.46
2018-11-12T06:15:22.535Z,41.77
2018-11-12T06:17:51.544Z,41.62
2018-11-12T06:20:21.547Z,41.21
2018-11-12T06:22:50.141Z,41.70
2018-11-12T06:25:19.763Z,41.84
2018-11-12T06:27:48.454Z,41.83
2018-11-12T06:30:19.399Z,41.76
2018-11-12T06:32:47.873Z,41.29
2018-11-12T06:35:16.857Z,41.70
2018-11-12T06:37:46.125Z,41.81
2018-11-12T06:40:23.239Z,53.27
2018-11-12T06:42:52.136Z,79.95
2018-11-12T06:45:32.343Z,82.65
2018-11-12T06:48:08.244Z,83.27
2018-11-12T06:51:02.161Z,83.50
2018-11-12T06:53:38.229Z,83.77
2018-11-12T06:56:13.742Z,83.87
2018-11-12T06:58:50.525Z,83.72
2018-11-12T07:01:25.456Z,83.54
2018-11-12T07:03:54.738Z,83.59
2018-11-12T07:06:23.510Z,83.13
2018-11-12T07:08:52.347Z,83.22
2018-11-12T07:14:15.554Z,82.65
2018-11-12T07:16:44.377Z,82.63
2018-11-12T07:19:13.105Z,82.32
2018-11-12T07:21:42.016Z,82.14
2018-11-12T07:24:10.719Z,82.15
2018-11-12T07:26:39.752Z,82.33
2018-11-12T07:29:08.847Z,82.03
2018-11-12T07:31:37.728Z,81.55
2018-11-12T07:34:06.546Z,82.34
2018-11-12T07:36:35.207Z,81.83
2018-11-12T07:41:46.085Z,81.97
2018-11-12T07:44:16.027Z,81.93
2018-11-12T07:46:44.656Z,82.04
2018-11-12T07:49:16.200Z,82.07
2018-11-12T07:51:44.845Z,82.61
2018-11-12T07:54:13.332Z,82.18
2018-11-12T07:56:42.514Z,82.66
2018-11-12T07:59:11.068Z,82.92
2018-11-12T08:01:43.878Z,82.83
2018-11-12T08:04:12.788Z,82.70
2018-11-12T08:06:41.467Z,81.27
2018-11-12T08:09:11.467Z,79.99
2018-11-12T08:11:40.460Z,78.45
2018-11-12T08:14:09.773Z,76.43
2018-11-12T08:16:38.685Z,74.79
2018-11-12T08:19:09.066Z,75.47
2018-11-12T08:21:37.696Z,78.60
2018-11-12T08:24:06.462Z,78.91
2018-11-12T08:26:36.440Z,79.21
2018-11-12T08:29:05.929Z,79.59
2018-11-12T08:31:34.867Z,79.22
2018-11-12T08:34:03.384Z,80.06
2018-11-12T08:36:32.978Z,80.00
2018-11-12T08:39:01.505Z,80.87
2018-11-12T08:41:30.320Z,81.00
2018-11-12T08:43:58.851Z,80.41
2018-11-12T08:46:27.376Z,80.73
2018-11-12T08:48:59.764Z,81.19
2018-11-12T08:51:28.342Z,81.28
2018-11-12T08:53:57.831Z,81.37
2018-11-12T08:56:28.469Z,80.99
2018-11-12T08:59:08.460Z,80.90
2018-11-12T09:01:48.185Z,81.42
2018-11-12T09:04:32.309Z,81.56
2018-11-12T09:07:01.488Z,81.91
2018-11-12T09:09:30.317Z,82.13
2018-11-12T09:11:58.924Z,81.99
2018-11-12T09:14:27.501Z,82.62
2018-11-12T09:16:56.438Z,82.99
2018-11-12T09:19:25.060Z,82.74
2018-11-12T09:21:54.488Z,84.03
2018-11-12T09:24:27.995Z,84.29
2018-11-12T09:26:58.814Z,84.12
2018-11-12T09:29:29.196Z,83.92
2018-11-12T09:31:57.787Z,84.12
2018-11-12T09:34:26.411Z,84.29
2018-11-12T09:36:55.232Z,84.18
2018-11-12T09:39:23.864Z,83.67
2018-11-12T09:41:58.710Z,83.84
2018-11-12T09:44:36.057Z,82.71
2018-11-12T09:47:12.315Z,82.24
2018-11-12T09:49:50.052Z,81.52
2018-11-12T09:52:19.149Z,80.35
2018-11-12T09:54:47.772Z,80.03
2018-11-12T09:57:17.034Z,77.24
2018-11-12T09:59:45.816Z,77.25
2018-11-12T10:02:15.346Z,77.25
2018-11-12T10:04:44.639Z,76.99
2018-11-12T10:07:14.764Z,78.09
2018-11-12T10:09:52.991Z,78.23
2018-11-12T10:12:23.617Z,77.91
2018-11-12T10:14:52.896Z,76.84
2018-11-12T10:17:22.916Z,77.37
2018-11-12T10:19:48.082Z,76.03
2018-11-12T10:22:17.194Z,75.56
2018-11-12T10:24:45.829Z,74.54
2018-11-12T10:27:16.241Z,73.06
2018-11-12T10:29:44.962Z,66.69
2018-11-12T10:32:13.784Z,63.24
2018-11-12T10:34:42.413Z,62.63
2018-11-12T10:37:13.284Z,61.46
2018-11-12T10:39:42.489Z,56.11
2018-11-12T10:42:26.899Z,60.32
2018-11-12T10:44:56.337Z,56.99
2018-11-12T10:47:26.291Z,59.60
2018-11-12T10:49:56.540Z,61.44
2018-11-12T10:52:25.489Z,61.39
2018-11-12T10:55:04.889Z,61.23
2018-11-12T10:57:22.874Z,59.50
2018-11-12T10:59:52.885Z,57.85
2018-11-12T11:02:27.090Z,56.93
2018-11-12T11:04:57.358Z,53.90
2018-11-12T11:07:26.194Z,53.81
2018-11-12T11:09:55.832Z,51.89
2018-11-12T11:12:25.316Z,52.12
2018-11-12T11:14:54.229Z,49.31
2018-11-12T11:17:24.187Z,49.24
2018-11-12T11:19:52.970Z,49.81
2018-11-12T11:22:21.790Z,48.49
2018-11-12T11:24:50.617Z,48.35
2018-11-12T11:27:19.355Z,47.22
2018-11-12T11:29:48.437Z,49.15
2018-11-12T11:32:17.268Z,50.19
2018-11-12T11:34:46.199Z,54.84
2018-11-12T11:37:19.366Z,56.56
2018-11-12T11:39:48.263Z,57.72
2018-11-12T11:42:16.969Z,58.96
2018-11-12T11:44:45.661Z,57.57
2018-11-12T11:47:15.289Z,57.99
2018-11-12T11:49:44.068Z,56.09
2018-11-12T11:52:12.958Z,55.20
2018-11-12T11:54:41.608Z,54.15
2018-11-12T11:57:10.982Z,52.66
2018-11-12T11:59:39.793Z,52.50
2018-11-12T12:02:10.317Z,51.39
2018-11-12T12:04:39.411Z,53.28
2018-11-12T12:07:08.164Z,52.01
2018-11-12T12:09:37.621Z,50.60
2018-11-12T12:12:07.790Z,54.05
2018-11-12T12:14:38.912Z,51.98
2018-11-12T12:17:08.624Z,52.11
2018-11-12T12:19:37.821Z,54.40
2018-11-12T12:22:07.579Z,54.45
2018-11-12T12:24:36.829Z,54.90
2018-11-12T12:27:06.651Z,54.20
2018-11-12T12:29:35.947Z,55.88
2018-11-12T12:32:04.636Z,55.16
2018-11-12T12:34:35.023Z,54.55
2018-11-12T12:37:05.744Z,56.02
2018-11-12T12:39:36.098Z,56.15
2018-11-12T12:42:06.767Z,57.94
2018-11-12T12:44:36.184Z,56.78
2018-11-12T12:47:06.852Z,57.68
2018-11-12T12:49:36.936Z,57.72
2018-11-12T12:52:09.199Z,56.55
2018-11-12T12:54:44.568Z,57.67
2018-11-12T12:57:14.739Z,57.75
2018-11-12T12:59:48.141Z,58.26
2018-11-12T13:02:17.380Z,59.19
2018-11-12T13:04:56.713Z,58.15
2018-11-12T13:07:32.632Z,59.93
2018-11-12T13:10:06.881Z,59.34
2018-11-12T13:12:36.373Z,57.29
2018-11-12T13:15:11.299Z,57.45
2018-11-12T13:17:41.354Z,60.05
2018-11-12T13:20:15.270Z,60.98
2018-11-12T13:22:45.453Z,60.43
2018-11-12T13:25:17.554Z,61.03
2018-11-12T13:27:49.463Z,62.18
2018-11-12T13:30:22.764Z,63.76
2018-11-12T13:32:52.039Z,62.08
2018-11-12T13:35:22.237Z,62.50
2018-11-12T13:37:51.080Z,63.25
2018-11-12T13:40:23.832Z,61.78
2018-11-12T13:42:54.788Z,62.21
2018-11-12T13:45:23.746Z,65.00
2018-11-12T13:47:52.621Z,65.40
2018-11-12T13:50:22.344Z,66.17
2018-11-12T13:52:51.424Z,67.23
2018-11-12T13:55:20.877Z,66.31
2018-11-12T13:57:49.415Z,69.76
2018-11-12T14:00:19.665Z,72.19
2018-11-12T14:02:48.763Z,73.73
2018-11-12T14:05:18.697Z,74.37
2018-11-12T14:07:47.555Z,74.50
2018-11-12T14:10:22.979Z,75.15
2018-11-12T14:12:52.452Z,75.29
2018-11-12T14:15:22.228Z,75.75
2018-11-12T14:17:51.377Z,75.86
2018-11-12T14:20:20.734Z,76.04
2018-11-12T14:22:49.306Z,76.04
2018-11-12T14:25:18.796Z,76.59
2018-11-12T14:27:48.917Z,76.83
2018-11-12T14:30:18.929Z,76.68
2018-11-12T14:32:47.591Z,77.31
2018-11-12T14:35:16.182Z,77.54
2018-11-12T14:37:45.943Z,77.79
2018-11-12T14:40:15.725Z,78.25
2018-11-12T14:42:44.653Z,78.45
2018-11-12T14:45:14.939Z,78.50
2018-11-12T14:47:44.111Z,78.56
2018-11-12T14:50:12.850Z,79.01
2018-11-12T14:52:41.598Z,79.10
2018-11-12T14:55:11.897Z,79.41
2018-11-12T14:57:40.638Z,79.67
2018-11-12T15:00:15.460Z,79.88
2018-11-12T15:02:44.077Z,79.96
2018-11-12T15:05:13.123Z,80.26
2018-11-12T15:07:43.002Z,80.28
2018-11-12T15:10:12.523Z,80.39
2018-11-12T15:12:41.101Z,80.50
2018-11-12T15:15:10.907Z,80.61
2018-11-12T15:17:39.908Z,80.84
2018-11-12T15:20:11.281Z,81.10
2018-11-12T15:22:40.148Z,81.25
2018-11-12T15:25:12.343Z,81.56
2018-11-12T15:27:41.095Z,81.61
2018-11-12T15:30:12.142Z,81.80
2018-11-12T15:32:41.411Z,81.96
2018-11-12T15:35:10.861Z,82.22
2018-11-12T15:37:39.844Z,82.00
2018-11-12T15:40:09.495Z,82.51
2018-11-12T15:42:39.028Z,82.35
2018-11-12T15:45:09.750Z,82.59
2018-11-12T15:47:38.372Z,82.41
2018-11-12T15:50:22.985Z,82.50
2018-11-12T15:52:51.705Z,82.96
2018-11-12T15:55:21.719Z,82.57
2018-11-12T15:57:50.297Z,82.60
2018-11-12T16:00:18.904Z,83.07
2018-11-12T16:02:47.586Z,83.06
2018-11-12T16:05:16.182Z,82.94
2018-11-12T16:07:51.171Z,82.98
2018-11-12T16:10:23.441Z,82.61
2018-11-12T16:12:55.231Z,82.95
2018-11-12T16:15:25.875Z,82.99
2018-11-12T16:17:55.730Z,82.37
2018-11-12T16:20:28.362Z,82.39
2018-11-12T16:22:59.308Z,82.59
2018-11-12T16:25:28.979Z,82.56
2018-11-12T16:27:59.010Z,82.87
2018-11-12T16:30:28.949Z,82.81
2018-11-12T16:33:00.172Z,82.98
2018-11-12T16:35:29.393Z,82.88
2018-11-12T16:37:58.585Z,82.83
2018-11-12T16:40:27.319Z,83.07
2018-11-12T16:42:56.799Z,82.49
2018-11-12T16:45:25.590Z,82.59
2018-11-12T16:47:55.752Z,82.93
2018-11-12T16:50:24.683Z,82.78
2018-11-12T16:52:53.657Z,82.82
2018-11-12T16:55:23.709Z,82.86
2018-11-12T16:57:54.092Z,82.48
2018-11-12T17:00:24.611Z,82.62
2018-11-12T17:02:53.385Z,82.70
2018-11-12T17:05:23.745Z,82.80
2018-11-12T17:07:52.728Z,82.86
2018-11-12T17:10:23.338Z,82.69
2018-11-12T17:12:52.375Z,82.81
2018-11-12T17:15:21.893Z,82.67
2018-11-12T17:17:50.772Z,82.81
2018-11-12T17:20:20.817Z,82.90
2018-11-12T17:22:49.635Z,83.10
2018-11-12T17:25:18.934Z,83.01
2018-11-12T17:27:48.589Z,83.12
2018-11-12T17:30:20.581Z,83.16
2018-11-12T17:32:50.095Z,82.93
2018-11-12T17:35:20.017Z,82.99
2018-11-12T17:37:49.216Z,82.96
2018-11-12T17:40:21.167Z,83.12
2018-11-12T17:42:50.832Z,83.36
2018-11-12T17:45:21.718Z,83.40
2018-11-12T17:47:52.981Z,83.50
2018-11-12T17:50:21.962Z,83.89
2018-11-12T17:52:51.041Z,84.23
2018-11-12T17:55:19.814Z,83.76
2018-11-12T17:57:48.970Z,84.01
2018-11-12T18:00:21.957Z,83.97
2018-11-12T18:02:50.628Z,83.71
2018-11-12T18:05:20.337Z,84.03
2018-11-12T18:07:49.059Z,83.90
2018-11-12T18:10:18.641Z,83.79
2018-11-12T18:12:47.240Z,83.79
2018-11-12T18:15:17.326Z,83.92
2018-11-12T18:17:45.990Z,84.12
2018-11-12T18:20:20.332Z,84.02
2018-11-12T18:22:49.641Z,83.90
2018-11-12T18:25:18.722Z,83.62
2018-11-12T18:27:47.682Z,83.33
2018-11-12T18:30:18.898Z,83.63
2018-11-12T18:32:50.000Z,83.58
2018-11-12T18:35:18.989Z,83.44
2018-11-12T18:37:47.826Z,83.57
2018-11-12T18:40:19.717Z,82.81
2018-11-12T18:42:48.764Z,83.18
2018-11-12T18:45:19.867Z,83.19
2018-11-12T18:47:50.511Z,83.03
2018-11-12T18:50:22.137Z,82.94
2018-11-12T18:52:50.786Z,82.52
2018-11-12T18:55:19.426Z,82.45
2018-11-12T18:57:49.297Z,82.32
2018-11-12T19:00:19.452Z,82.35
2018-11-12T19:02:48.641Z,82.35
2018-11-12T19:05:23.483Z,82.64
2018-11-12T19:07:53.544Z,82.49
2018-11-12T19:10:29.800Z,82.74
2018-11-12T19:12:58.933Z,82.80
2018-11-12T19:15:30.663Z,82.71
2018-11-12T19:18:02.404Z,82.76
2018-11-12T19:20:31.128Z,82.88
2018-11-12T19:22:59.870Z,82.74
2018-11-12T19:25:28.620Z,82.79
2018-11-12T19:27:58.930Z,82.99
2018-11-12T19:30:28.619Z,82.72
2018-11-12T19:32:57.460Z,82.59
2018-11-12T19:35:27.849Z,82.83
2018-11-12T19:37:57.490Z,82.47
2018-11-12T19:40:27.826Z,82.77
2018-11-12T19:42:56.980Z,82.89
2018-11-12T19:45:25.644Z,82.89
2018-11-12T19:47:54.654Z,83.25
2018-11-12T19:50:24.558Z,82.98
2018-11-12T19:52:54.531Z,83.03
2018-11-12T19:55:23.181Z,82.90
2018-11-12T19:57:51.851Z,82.81
2018-11-12T20:00:22.259Z,83.00
2018-11-12T20:02:52.074Z,83.03
2018-11-12T20:05:20.720Z,83.24
2018-11-12T20:07:49.348Z,83.47
2018-11-12T20:10:20.951Z,83.02
2018-11-12T20:12:49.773Z,83.30
2018-11-12T20:15:19.610Z,83.58
2018-11-12T20:17:49.201Z,83.18
2018-11-12T20:20:23.583Z,83.47
2018-11-12T20:22:52.616Z,83.54
2018-11-12T20:25:21.678Z,83.29
2018-11-12T20:27:51.438Z,83.08
2018-11-12T20:30:26.054Z,83.01
2018-11-12T20:32:54.753Z,82.85
2018-11-12T20:35:23.442Z,83.05
2018-11-12T20:37:52.464Z,83.28
2018-11-12T20:40:21.472Z,82.94
2018-11-12T20:42:50.743Z,82.26
2018-11-12T20:45:20.598Z,82.31
2018-11-12T20:47:50.427Z,82.84
2018-11-12T20:50:19.169Z,82.64
2018-11-12T20:52:47.876Z,83.04
2018-11-12T20:55:17.300Z,82.81
2018-11-12T20:57:46.553Z,82.92
2018-11-12T21:00:18.627Z,82.63
2018-11-12T21:02:48.736Z,82.77
2018-11-12T21:05:17.725Z,82.79
2018-11-12T21:07:46.361Z,82.92
2018-11-12T21:10:16.311Z,82.79
2018-11-12T21:12:45.224Z,82.70
2018-11-12T21:15:14.953Z,82.94
2018-11-12T21:17:43.880Z,82.98
2018-11-12T21:20:14.545Z,82.72
2018-11-12T21:22:43.457Z,82.77
2018-11-12T21:25:13.365Z,82.11
2018-11-12T21:27:42.058Z,82.78
2018-11-12T21:30:20.535Z,82.60
2018-11-12T21:32:49.584Z,83.30
2018-11-12T21:35:18.311Z,82.77
2018-11-12T21:37:47.925Z,83.22
2018-11-12T21:40:18.617Z,82.08
2018-11-12T21:42:47.232Z,82.29
2018-11-12T21:45:17.337Z,82.26
2018-11-12T21:47:46.728Z,81.84
2018-11-12T21:50:17.597Z,81.82
2018-11-12T21:52:46.242Z,81.35
2018-11-12T21:55:14.962Z,81.40
2018-11-12T21:57:44.357Z,81.58
2018-11-12T22:01:19.743Z,81.74
2018-11-12T22:03:49.156Z,81.95
2018-11-12T22:06:18.732Z,81.71
2018-11-12T22:08:47.525Z,81.75
2018-11-12T22:11:16.200Z,82.23
2018-11-12T22:13:44.841Z,82.12
2018-11-12T22:16:13.506Z,82.83
2018-11-12T22:18:42.270Z,82.48
2018-11-12T22:21:10.883Z,82.26
2018-11-12T22:23:43.204Z,82.07
2018-11-12T22:26:11.814Z,82.62
2018-11-12T22:28:40.418Z,82.63
2018-11-12T22:31:08.976Z,82.89
2018-11-12T22:33:37.616Z,83.00
2018-11-12T22:36:06.299Z,83.21
2018-11-12T22:38:34.864Z,83.03
2018-11-12T22:41:03.547Z,83.26
2018-11-12T22:43:32.117Z,83.32
2018-11-12T22:46:00.826Z,83.70
2018-11-12T22:48:29.603Z,84.12
2018-11-12T22:50:58.151Z,84.10
2018-11-12T22:53:26.810Z,83.85
2018-11-12T22:55:56.363Z,83.62
2018-11-12T22:58:25.012Z,83.36
2018-11-12T23:00:54.042Z,83.29
2018-11-12T23:03:22.657Z,83.44
2018-11-12T23:05:55.452Z,83.15
2018-11-12T23:08:24.082Z,83.68
2018-11-12T23:10:52.791Z,83.60
2018-11-12T23:13:21.537Z,83.54
2018-11-12T23:15:50.180Z,83.89
2018-11-12T23:18:18.849Z,84.14
2018-11-12T23:20:47.555Z,84.42
2018-11-12T23:23:16.376Z,84.67
2018-11-12T23:25:45.545Z,85.00
2018-11-12T23:28:15.000Z,84.54
2018-11-12T23:30:43.819Z,84.25
2018-11-12T23:33:12.440Z,84.08
2018-11-12T23:35:41.431Z,84.07
2018-11-12T23:38:10.253Z,84.32
2018-11-12T23:40:39.076Z,83.87
2018-11-12T23:43:07.604Z,83.78
2018-11-12T23:45:36.435Z,83.67
2018-11-12T23:48:05.191Z,83.66
2018-11-12T23:50:33.921Z,83.89
2018-11-12T23:53:03.045Z,84.07
2018-11-12T23:55:33.340Z,84.02
2018-11-12T23:58:01.955Z,84.02
